createdAt,value
2023-06-21T00:00:01.372Z,0
2023-06-21T00:01:06.888Z,0
2023-06-21T00:02:01.045Z,0
2023-06-21T00:03:01.152Z,0
2023-06-21T00:04:01.918Z,0
2023-06-21T00:05:01.948Z,0
2023-06-21T00:06:09.975Z,0
2023-06-21T00:07:01.374Z,0
2023-06-21T00:08:01.110Z,0
2023-06-21T00:09:01.139Z,0
2023-06-21T00:10:01.237Z,0
2023-06-21T00:11:12.838Z,0
2023-06-21T00:12:01.113Z,0
2023-06-21T00:13:00.827Z,0
2023-06-21T00:14:00.438Z,0
2023-06-21T00:15:00.115Z,0
2023-06-21T00:16:14.902Z,0
2023-06-21T00:17:01.045Z,0
2023-06-21T00:18:01.414Z,0
2023-06-21T00:19:01.313Z,0
2023-06-21T00:20:04.030Z,0
2023-06-21T00:21:16.736Z,0
2023-06-21T00:22:01.077Z,0
2023-06-21T00:23:01.082Z,0
2023-06-21T00:24:01.192Z,0
2023-06-21T00:25:01.443Z,0.03888888888888889
2023-06-21T00:26:01.106Z,0
2023-06-21T00:27:01.113Z,0
2023-06-21T00:28:01.170Z,0
2023-06-21T00:29:01.130Z,0
2023-06-21T00:30:01.141Z,0
2023-06-21T00:31:01.319Z,0
2023-06-21T00:32:01.054Z,0
2023-06-21T00:33:01.808Z,0
2023-06-21T00:34:01.728Z,0
2023-06-21T00:35:01.070Z,0
2023-06-21T00:36:01.064Z,0
2023-06-21T00:37:01.077Z,0
2023-06-21T00:38:01.206Z,0
2023-06-21T00:39:01.199Z,0
2023-06-21T00:40:01.206Z,0
2023-06-21T00:41:01.213Z,0
2023-06-21T00:42:01.180Z,0
2023-06-21T00:43:01.065Z,0
2023-06-21T00:44:01.184Z,0
2023-06-21T00:45:01.356Z,0
2023-06-21T00:46:01.117Z,0
2023-06-21T00:47:02.587Z,0
2023-06-21T00:48:01.890Z,0
2023-06-21T00:49:01.816Z,0
2023-06-21T00:50:02.091Z,0
2023-06-21T00:51:01.153Z,0
2023-06-21T00:52:01.042Z,0
2023-06-21T00:53:01.036Z,0
2023-06-21T00:54:01.116Z,0
2023-06-21T00:55:01.089Z,0
2023-06-21T00:56:01.473Z,0
2023-06-21T00:57:01.014Z,0
2023-06-21T00:58:01.113Z,0
2023-06-21T00:59:01.038Z,0
2023-06-21T01:00:00.710Z,0
2023-06-21T01:01:00.299Z,0
2023-06-21T01:01:59.933Z,0
2023-06-21T01:02:59.775Z,0
2023-06-21T01:04:01.725Z,0
2023-06-21T01:05:01.864Z,0
2023-06-21T01:06:01.986Z,0
2023-06-21T01:07:01.083Z,0
2023-06-21T01:08:01.086Z,0
2023-06-21T01:09:00.761Z,0
2023-06-21T01:10:00.428Z,0
2023-06-21T01:11:00.072Z,0
2023-06-21T01:12:00.097Z,0
2023-06-21T01:13:00.114Z,0
2023-06-21T01:13:59.901Z,0
2023-06-21T01:14:59.699Z,0
2023-06-21T01:16:01.565Z,0
2023-06-21T01:17:01.341Z,0
2023-06-21T01:18:01.823Z,0
2023-06-21T01:19:01.088Z,0
2023-06-21T01:20:01.061Z,0
2023-06-21T01:21:01.065Z,0
2023-06-21T01:22:01.085Z,0
2023-06-21T01:23:00.751Z,0
2023-06-21T01:24:00.750Z,0
2023-06-21T01:25:01.878Z,0
2023-06-21T01:25:59.537Z,0
2023-06-21T01:27:01.133Z,0
2023-06-21T01:28:01.096Z,0
2023-06-21T01:29:01.121Z,0
2023-06-21T01:30:01.156Z,0
2023-06-21T01:31:01.156Z,0
2023-06-21T01:32:01.295Z,0
2023-06-21T01:33:01.215Z,0
2023-06-21T01:34:03.923Z,0
2023-06-21T01:35:01.048Z,0
2023-06-21T01:36:01.054Z,0
2023-06-21T01:37:01.063Z,0
2023-06-21T01:38:01.112Z,0
2023-06-21T01:39:02.252Z,0
2023-06-21T01:40:01.030Z,0
2023-06-21T01:41:01.084Z,0
2023-06-21T01:42:01.706Z,0
2023-06-21T01:43:01.536Z,0
2023-06-21T01:44:01.108Z,0
2023-06-21T01:45:01.018Z,0
2023-06-21T01:46:01.088Z,0
2023-06-21T01:47:05.142Z,0
2023-06-21T01:48:01.867Z,0
2023-06-21T01:49:01.060Z,0
2023-06-21T01:50:01.452Z,0
2023-06-21T01:51:01.179Z,0
2023-06-21T01:52:07.785Z,0
2023-06-21T01:53:01.015Z,0
2023-06-21T01:54:01.011Z,0
2023-06-21T01:55:01.075Z,0
2023-06-21T01:56:01.086Z,0.31666666666666665
2023-06-21T01:57:09.714Z,0.09722222222222221
2023-06-21T01:58:01.092Z,0
2023-06-21T01:59:01.039Z,0.675
2023-06-21T02:00:00.847Z,0.5777777777777778
2023-06-21T02:01:01.234Z,0.11944444444444444
2023-06-21T02:02:13.098Z,0
2023-06-21T02:03:02.217Z,0
2023-06-21T02:04:00.848Z,0
2023-06-21T02:05:01.075Z,0.47777777777777775
2023-06-21T02:06:00.795Z,0.11944444444444444
2023-06-21T02:07:14.244Z,0.15833333333333333
2023-06-21T02:08:01.737Z,0.19999999999999998
2023-06-21T02:09:01.901Z,0.47777777777777775
2023-06-21T02:10:02.074Z,0.036111111111111115
2023-06-21T02:11:01.088Z,0.47777777777777775
2023-06-21T02:12:01.254Z,0.5166666666666667
2023-06-21T02:13:01.499Z,0.15833333333333333
2023-06-21T02:14:01.473Z,0.23888888888888887
2023-06-21T02:15:01.446Z,0.2777777777777778
2023-06-21T02:16:01.140Z,0.5555555555555556
2023-06-21T02:17:01.028Z,0.23888888888888887
2023-06-21T02:18:01.486Z,0.32499999999999996
2023-06-21T02:19:01.138Z,0.35555555555555557
2023-06-21T02:20:02.410Z,0
2023-06-21T02:21:01.870Z,0
2023-06-21T02:22:01.064Z,0.15833333333333333
2023-06-21T02:23:00.684Z,0.15833333333333333
2023-06-21T02:24:00.260Z,0
2023-06-21T02:25:00.257Z,0
2023-06-21T02:25:59.949Z,0
2023-06-21T02:26:59.651Z,0
2023-06-21T02:28:01.544Z,0.2777777777777778
2023-06-21T02:29:01.299Z,0.15833333333333333
2023-06-21T02:30:02.959Z,0.46944444444444444
2023-06-21T02:31:02.643Z,0.3972222222222222
2023-06-21T02:32:01.128Z,0.03888888888888889
2023-06-21T02:33:01.185Z,0.5555555555555556
2023-06-21T02:34:00.605Z,0
2023-06-21T02:35:00.595Z,0.15833333333333333
2023-06-21T02:36:00.530Z,0
2023-06-21T02:37:00.114Z,0
2023-06-21T02:37:59.827Z,0
2023-06-21T02:39:01.473Z,0
2023-06-21T02:40:01.084Z,0
2023-06-21T02:41:01.074Z,0
2023-06-21T02:42:01.072Z,0
2023-06-21T02:43:01.101Z,0
2023-06-21T02:44:01.109Z,0.675
2023-06-21T02:45:01.366Z,0
2023-06-21T02:46:03.921Z,0.10833333333333334
2023-06-21T02:47:02.256Z,0
2023-06-21T02:48:01.258Z,0
2023-06-21T02:49:01.326Z,0
2023-06-21T02:50:01.049Z,0
2023-06-21T02:51:01.060Z,0
2023-06-21T02:52:01.050Z,0
2023-06-21T02:53:01.772Z,0
2023-06-21T02:54:02.105Z,0
2023-06-21T02:55:01.364Z,0
2023-06-21T02:56:03.873Z,0
2023-06-21T02:57:01.248Z,0
2023-06-21T02:58:00.909Z,0
2023-06-21T02:59:01.830Z,0
2023-06-21T03:00:01.065Z,0
2023-06-21T03:01:01.274Z,0
2023-06-21T03:02:01.108Z,0
2023-06-21T03:03:01.438Z,0
2023-06-21T03:04:01.180Z,0
2023-06-21T03:05:02.026Z,0
2023-06-21T03:06:01.040Z,0
2023-06-21T03:07:01.053Z,0
2023-06-21T03:08:02.127Z,0
2023-06-21T03:09:02.430Z,0
2023-06-21T03:10:01.373Z,0
2023-06-21T03:11:02.081Z,0
2023-06-21T03:12:01.086Z,0
2023-06-21T03:13:01.075Z,0
2023-06-21T03:14:00.671Z,0
2023-06-21T03:15:00.554Z,0
2023-06-21T03:16:00.176Z,0
2023-06-21T03:16:59.926Z,0
2023-06-21T03:17:59.694Z,0
2023-06-21T03:19:02.050Z,0
2023-06-21T03:20:01.456Z,0
2023-06-21T03:21:01.041Z,0
2023-06-21T03:22:01.134Z,0
2023-06-21T03:23:01.069Z,0
2023-06-21T03:24:01.695Z,0
2023-06-21T03:25:00.761Z,0
2023-06-21T03:26:00.469Z,0
2023-06-21T03:27:00.244Z,0
2023-06-21T03:28:01.390Z,0
2023-06-21T03:29:00.825Z,0
2023-06-21T03:30:01.197Z,0
2023-06-21T03:31:02.545Z,0
2023-06-21T03:32:00.622Z,0
2023-06-21T03:33:04.379Z,0
2023-06-21T03:34:00.817Z,0
2023-06-21T03:35:00.523Z,0
2023-06-21T03:36:00.251Z,0
2023-06-21T03:37:00.252Z,0
2023-06-21T03:38:05.954Z,0
2023-06-21T03:39:02.546Z,0
2023-06-21T03:40:01.087Z,0
2023-06-21T03:41:01.049Z,0
2023-06-21T03:42:01.059Z,0
2023-06-21T03:43:09.962Z,0
2023-06-21T03:44:01.083Z,0
2023-06-21T03:45:01.246Z,0
2023-06-21T03:46:01.515Z,0
2023-06-21T03:47:01.484Z,0
2023-06-21T03:48:12.642Z,0.18333333333333335
2023-06-21T03:49:01.207Z,0
2023-06-21T03:50:01.308Z,0
2023-06-21T03:51:00.961Z,0
2023-06-21T03:52:01.046Z,0
2023-06-21T03:53:15.728Z,0
2023-06-21T03:54:01.344Z,0
2023-06-21T03:55:01.652Z,0
2023-06-21T03:56:01.023Z,0
2023-06-21T03:57:01.209Z,0
2023-06-21T03:58:00.867Z,0
2023-06-21T03:59:01.082Z,0
2023-06-21T04:00:01.012Z,0
2023-06-21T04:01:01.089Z,0
2023-06-21T04:02:01.110Z,0
2023-06-21T04:03:02.074Z,0.2777777777777778
2023-06-21T04:04:01.613Z,0.2361111111111111
2023-06-21T04:05:01.242Z,0
2023-06-21T04:06:01.521Z,0
2023-06-21T04:07:01.050Z,0
2023-06-21T04:08:01.195Z,0
2023-06-21T04:09:01.052Z,0
2023-06-21T04:10:01.135Z,0
2023-06-21T04:11:01.109Z,0.08055555555555555
2023-06-21T04:12:01.110Z,0.11944444444444444
2023-06-21T04:13:01.072Z,0.31666666666666665
2023-06-21T04:14:00.968Z,0
2023-06-21T04:15:01.494Z,0
2023-06-21T04:16:01.309Z,0
2023-06-21T04:17:03.994Z,0
2023-06-21T04:18:01.213Z,0.2777777777777778
2023-06-21T04:19:00.722Z,0.08055555555555555
2023-06-21T04:20:00.288Z,0
2023-06-21T04:20:59.904Z,0
2023-06-21T04:21:59.749Z,0.15833333333333333
2023-06-21T04:23:01.670Z,0.03888888888888889
2023-06-21T04:24:01.470Z,0
2023-06-21T04:25:01.486Z,0.036111111111111115
2023-06-21T04:26:01.971Z,0.15833333333333333
2023-06-21T04:27:01.061Z,0.3972222222222222
2023-06-21T04:28:01.024Z,0
2023-06-21T04:29:01.028Z,0.03888888888888889
2023-06-21T04:30:00.679Z,0
2023-06-21T04:31:00.394Z,0
2023-06-21T04:32:00.317Z,0
2023-06-21T04:33:01.262Z,0.2777777777777778
2023-06-21T04:34:02.164Z,0.03888888888888889
2023-06-21T04:35:02.044Z,0
2023-06-21T04:36:01.505Z,0.11944444444444444
2023-06-21T04:37:01.116Z,0
2023-06-21T04:38:00.821Z,0.3972222222222222
2023-06-21T04:39:00.413Z,0
2023-06-21T04:40:12.332Z,0
2023-06-21T04:41:01.242Z,0
2023-06-21T04:42:01.290Z,0
2023-06-21T04:43:01.434Z,0.10833333333333334
2023-06-21T04:44:01.084Z,0.3111111111111111
2023-06-21T04:45:01.087Z,0
2023-06-21T04:46:01.288Z,0.08055555555555555
2023-06-21T04:47:01.081Z,0.08055555555555555
2023-06-21T04:48:01.123Z,0.11944444444444444
2023-06-21T04:49:01.108Z,0.5166666666666667
2023-06-21T04:50:15.076Z,0.11944444444444444
2023-06-21T04:51:01.715Z,0.2777777777777778
2023-06-21T04:52:01.351Z,0.19999999999999998
2023-06-21T04:53:01.523Z,0.03888888888888889
2023-06-21T04:54:01.203Z,0.33888888888888885
2023-06-21T04:55:02.707Z,0
2023-06-21T04:56:03.209Z,0.03888888888888889
2023-06-21T04:57:01.447Z,0.03888888888888889
2023-06-21T04:58:01.905Z,0.08055555555555555
2023-06-21T04:59:01.082Z,0.3972222222222222
2023-06-21T05:00:01.206Z,0
2023-06-21T05:01:02.409Z,0
2023-06-21T05:02:01.440Z,1.0416666666666667
2023-06-21T05:03:02.199Z,0.11944444444444444
2023-06-21T05:04:01.027Z,0.18333333333333335
2023-06-21T05:05:01.108Z,0.15833333333333333
2023-06-21T05:06:01.211Z,0.19999999999999998
2023-06-21T05:07:01.110Z,0.5166666666666667
2023-06-21T05:08:01.190Z,0.15833333333333333
2023-06-21T05:09:01.148Z,0.6527777777777778
2023-06-21T05:10:01.444Z,0.19999999999999998
2023-06-21T05:11:01.858Z,0
2023-06-21T05:12:01.338Z,0.03888888888888889
2023-06-21T05:13:01.045Z,0
2023-06-21T05:14:01.035Z,0.19722222222222222
2023-06-21T05:15:01.056Z,0.23888888888888887
2023-06-21T05:16:01.021Z,0.47777777777777775
2023-06-21T05:17:01.235Z,0.9138888888888889
2023-06-21T05:18:01.974Z,0.11944444444444444
2023-06-21T05:19:01.032Z,0.5305555555555556
2023-06-21T05:20:01.629Z,0.03888888888888889
2023-06-21T05:21:01.109Z,0.03888888888888889
2023-06-21T05:22:01.130Z,0.7555555555555555
2023-06-21T05:23:01.157Z,0.23888888888888887
2023-06-21T05:24:04.088Z,0.4305555555555556
2023-06-21T05:25:01.060Z,0.08055555555555555
2023-06-21T05:26:03.182Z,0.2777777777777778
2023-06-21T05:27:01.071Z,0.03888888888888889
2023-06-21T05:28:01.296Z,0.35833333333333334
2023-06-21T05:29:06.240Z,0.26944444444444443
2023-06-21T05:30:01.529Z,0.08055555555555555
2023-06-21T05:31:01.101Z,0
2023-06-21T05:32:01.081Z,0.31666666666666665
2023-06-21T05:33:01.101Z,0.875
2023-06-21T05:34:09.169Z,0.6138888888888888
2023-06-21T05:35:00.710Z,0.31666666666666665
2023-06-21T05:36:00.385Z,0.6361111111111111
2023-06-21T05:37:00.064Z,0.15833333333333333
2023-06-21T05:37:59.612Z,0
2023-06-21T05:39:12.834Z,0.1611111111111111
2023-06-21T05:40:02.266Z,0.5555555555555556
2023-06-21T05:41:04.602Z,0.5666666666666667
2023-06-21T05:42:01.060Z,0.31666666666666665
2023-06-21T05:43:01.050Z,0.23888888888888887
2023-06-21T05:44:15.793Z,0.36944444444444446
2023-06-21T05:45:01.471Z,0.25
2023-06-21T05:46:01.269Z,0.47777777777777775
2023-06-21T05:47:00.805Z,0.15833333333333333
2023-06-21T05:48:00.480Z,0.4361111111111111
2023-06-21T05:49:00.063Z,0.7138888888888888
2023-06-21T05:49:59.650Z,0.22222222222222224
2023-06-21T05:51:01.278Z,0.7138888888888888
2023-06-21T05:52:01.125Z,0.23888888888888887
2023-06-21T05:53:01.105Z,0.19999999999999998
2023-06-21T05:54:01.152Z,0.08055555555555555
2023-06-21T05:55:01.446Z,0.3638888888888889
2023-06-21T05:56:01.022Z,0.6361111111111111
2023-06-21T05:57:01.045Z,0.4361111111111111
2023-06-21T05:58:01.040Z,0.7138888888888888
2023-06-21T05:59:01.062Z,0.5972222222222222
2023-06-21T06:00:00.768Z,0.8305555555555556
2023-06-21T06:01:08.983Z,0.7944444444444444
2023-06-21T06:02:01.793Z,0.8333333333333333
2023-06-21T06:03:01.117Z,0.35833333333333334
2023-06-21T06:04:01.128Z,0.8333333333333333
2023-06-21T06:05:01.447Z,0.8333333333333333
2023-06-21T06:06:02.651Z,1.3111111111111111
2023-06-21T06:07:01.107Z,0.9527777777777778
2023-06-21T06:08:01.057Z,1.7083333333333335
2023-06-21T06:09:01.124Z,1.4694444444444443
2023-06-21T06:10:01.159Z,1.1111111111111112
2023-06-21T06:11:02.471Z,0.7944444444444444
2023-06-21T06:12:01.534Z,1.0333333333333334
2023-06-21T06:13:01.729Z,0.2777777777777778
2023-06-21T06:14:02.643Z,0.7138888888888888
2023-06-21T06:15:01.559Z,0.7138888888888888
2023-06-21T06:16:02.263Z,0.18611111111111112
2023-06-21T06:17:01.065Z,1.1916666666666667
2023-06-21T06:18:00.868Z,0.9527777777777778
2023-06-21T06:19:01.069Z,0.11944444444444444
2023-06-21T06:20:00.793Z,0.33888888888888885
2023-06-21T06:21:00.588Z,0.7138888888888888
2023-06-21T06:22:00.491Z,0.875
2023-06-21T06:23:00.252Z,0.675
2023-06-21T06:24:00.260Z,0.11944444444444444
2023-06-21T06:24:59.867Z,0.31666666666666665
2023-06-21T06:25:59.668Z,0.3972222222222222
2023-06-21T06:27:01.869Z,1.0722222222222222
2023-06-21T06:28:01.325Z,1.7083333333333335
2023-06-21T06:29:01.147Z,1.35
2023-06-21T06:30:01.047Z,0.4361111111111111
2023-06-21T06:31:01.516Z,0.21666666666666667
2023-06-21T06:32:01.394Z,1.35
2023-06-21T06:33:01.141Z,0.9944444444444445
2023-06-21T06:34:01.077Z,1.1916666666666667
2023-06-21T06:35:01.045Z,1.35
2023-06-21T06:36:01.097Z,2.047222222222222
2023-06-21T06:37:12.148Z,0.7138888888888888
2023-06-21T06:38:01.100Z,1.2722222222222221
2023-06-21T06:39:01.100Z,0.8333333333333333
2023-06-21T06:40:01.036Z,0.4611111111111111
2023-06-21T06:41:00.667Z,0.7138888888888888
2023-06-21T06:42:00.510Z,0.8333333333333333
2023-06-21T06:43:00.091Z,0.5555555555555556
2023-06-21T06:43:59.709Z,1.0333333333333334
2023-06-21T06:45:01.777Z,0.2777777777777778
2023-06-21T06:46:01.100Z,0.875
2023-06-21T06:47:01.220Z,0.9138888888888889
2023-06-21T06:48:01.914Z,0.9138888888888889
2023-06-21T06:49:01.647Z,1.2305555555555554
2023-06-21T06:50:00.663Z,0.9944444444444445
2023-06-21T06:51:00.396Z,0.9944444444444445
2023-06-21T06:52:00.060Z,1.2305555555555554
2023-06-21T06:52:59.752Z,1.4305555555555556
2023-06-21T06:54:03.712Z,0.47777777777777775
2023-06-21T06:55:01.348Z,0.4666666666666666
2023-06-21T06:56:01.253Z,1.3111111111111111
2023-06-21T06:57:01.532Z,0.6361111111111111
2023-06-21T06:58:06.160Z,0.7555555555555555
2023-06-21T06:59:02.391Z,0.7555555555555555
2023-06-21T07:00:01.163Z,1.797222222222222
2023-06-21T07:01:01.957Z,1.0722222222222222
2023-06-21T07:02:01.151Z,0.7944444444444444
2023-06-21T07:03:01.134Z,1.0333333333333334
2023-06-21T07:04:01.133Z,1.6694444444444443
2023-06-21T07:05:01.046Z,2.0416666666666665
2023-06-21T07:06:01.079Z,1.8277777777777777
2023-06-21T07:07:01.152Z,1.5083333333333333
2023-06-21T07:08:01.112Z,0.5972222222222222
2023-06-21T07:09:01.180Z,0.7138888888888888
2023-06-21T07:10:02.075Z,1.0694444444444444
2023-06-21T07:11:01.102Z,2.186111111111111
2023-06-21T07:12:01.125Z,2.5027777777777778
2023-06-21T07:13:01.064Z,1.3111111111111111
2023-06-21T07:14:01.063Z,0.6361111111111111
2023-06-21T07:15:05.429Z,0.49166666666666664
2023-06-21T07:16:01.389Z,0.6361111111111111
2023-06-21T07:17:01.423Z,1.1027777777777779
2023-06-21T07:18:01.491Z,1.0722222222222222
2023-06-21T07:19:01.174Z,1.6694444444444443
2023-06-21T07:20:07.894Z,1.3027777777777778
2023-06-21T07:21:01.880Z,1.3916666666666666
2023-06-21T07:22:01.036Z,0.9138888888888889
2023-06-21T07:23:01.461Z,0.6361111111111111
2023-06-21T07:24:00.695Z,1.2305555555555554
2023-06-21T07:25:10.309Z,0.7138888888888888
2023-06-21T07:26:02.116Z,1.2027777777777777
2023-06-21T07:27:01.180Z,1.3916666666666666
2023-06-21T07:28:01.126Z,0.8333333333333333
2023-06-21T07:29:01.144Z,1.4694444444444443
2023-06-21T07:30:14.261Z,1.4277777777777776
2023-06-21T07:31:01.145Z,1.152777777777778
2023-06-21T07:32:01.046Z,1.2722222222222221
2023-06-21T07:33:01.127Z,1.1111111111111112
2023-06-21T07:34:03.312Z,0.9944444444444445
2023-06-21T07:35:01.022Z,1.6277777777777778
2023-06-21T07:36:02.114Z,1.0333333333333334
2023-06-21T07:37:01.837Z,0.875
2023-06-21T07:38:01.044Z,0.9138888888888889
2023-06-21T07:39:01.019Z,0.9944444444444445
2023-06-21T07:40:01.015Z,0.9944444444444445
2023-06-21T07:41:01.110Z,0.875
2023-06-21T07:42:12.653Z,0.7944444444444444
2023-06-21T07:43:01.131Z,1.2305555555555554
2023-06-21T07:44:01.167Z,0.9527777777777778
2023-06-21T07:45:01.468Z,0.875
2023-06-21T07:46:14.530Z,1.2222222222222223
2023-06-21T07:47:01.072Z,1.8666666666666665
2023-06-21T07:48:01.611Z,0.9138888888888889
2023-06-21T07:49:01.058Z,0.4361111111111111
2023-06-21T07:50:09.292Z,1.0722222222222222
2023-06-21T07:51:01.474Z,0.775
2023-06-21T07:52:01.904Z,1.6277777777777778
2023-06-21T07:53:01.466Z,1.1916666666666667
2023-06-21T07:54:01.923Z,1.4638888888888888
2023-06-21T07:55:01.120Z,1.7083333333333335
2023-06-21T07:56:01.109Z,1.8277777777777777
2023-06-21T07:57:01.112Z,0.5555555555555556
2023-06-21T07:58:01.107Z,1.4694444444444443
2023-06-21T07:59:01.453Z,1.4305555555555556
2023-06-21T08:00:01.173Z,0.5555555555555556
2023-06-21T08:01:01.050Z,1.152777777777778
2023-06-21T08:02:00.805Z,1.35
2023-06-21T08:03:01.055Z,1.5888888888888888
2023-06-21T08:04:01.104Z,1.6694444444444443
2023-06-21T08:05:01.089Z,0.875
2023-06-21T08:06:01.317Z,1.4694444444444443
2023-06-21T08:07:01.066Z,0.7944444444444444
2023-06-21T08:08:01.122Z,0.9527777777777778
2023-06-21T08:09:02.157Z,1.2305555555555554
2023-06-21T08:10:01.789Z,0.6444444444444444
2023-06-21T08:11:01.986Z,1.3916666666666666
2023-06-21T08:12:01.392Z,1.5888888888888888
2023-06-21T08:13:01.130Z,1.2722222222222221
2023-06-21T08:14:01.140Z,1.7472222222222222
2023-06-21T08:15:01.145Z,2.263888888888889
2023-06-21T08:16:01.034Z,1.5083333333333333
2023-06-21T08:17:01.035Z,2.263888888888889
2023-06-21T08:18:01.473Z,1.086111111111111
2023-06-21T08:19:01.055Z,1.5083333333333333
2023-06-21T08:20:01.089Z,0.9944444444444445
2023-06-21T08:21:00.756Z,2.3027777777777776
2023-06-21T08:22:00.497Z,1.611111111111111
2023-06-21T08:23:00.276Z,0.3972222222222222
2023-06-21T08:23:59.942Z,1.3916666666666666
2023-06-21T08:24:59.526Z,2.4638888888888886
2023-06-21T08:26:01.850Z,1.5361111111111112
2023-06-21T08:27:01.205Z,0.47777777777777775
2023-06-21T08:28:01.173Z,0.675
2023-06-21T08:29:01.117Z,1.3916666666666666
2023-06-21T08:30:01.144Z,0.5555555555555556
2023-06-21T08:31:01.136Z,0.5361111111111111
2023-06-21T08:32:01.292Z,0.8944444444444445
2023-06-21T08:33:02.419Z,1.2722222222222221
2023-06-21T08:34:01.043Z,1.5083333333333333
2023-06-21T08:35:01.051Z,1.0333333333333334
2023-06-21T08:36:01.450Z,1.4277777777777776
2023-06-21T08:37:01.082Z,0.9527777777777778
2023-06-21T08:38:08.840Z,1.4305555555555556
2023-06-21T08:39:01.081Z,1.55
2023-06-21T08:40:01.149Z,2.263888888888889
2023-06-21T08:41:01.481Z,1.7833333333333332
2023-06-21T08:42:00.995Z,0.775
2023-06-21T08:43:01.174Z,0.5166666666666667
2023-06-21T08:44:01.182Z,0.9944444444444445
2023-06-21T08:45:01.485Z,0.8333333333333333
2023-06-21T08:46:01.142Z,1.4027777777777777
2023-06-21T08:47:01.034Z,1.7083333333333335
2023-06-21T08:48:01.161Z,0.8333333333333333
2023-06-21T08:49:01.041Z,0.5555555555555556
2023-06-21T08:50:01.018Z,1.1916666666666667
2023-06-21T08:51:01.016Z,1.347222222222222
2023-06-21T08:52:01.071Z,1.35
2023-06-21T08:53:01.074Z,1.7472222222222222
2023-06-21T08:54:01.076Z,1.35
2023-06-21T08:55:01.088Z,2.1055555555555556
2023-06-21T08:56:02.994Z,0.4305555555555556
2023-06-21T08:57:01.510Z,0.9944444444444445
2023-06-21T08:58:01.119Z,0.4361111111111111
2023-06-21T08:59:01.127Z,0.5555555555555556
2023-06-21T09:00:01.125Z,0.3972222222222222
2023-06-21T09:01:04.311Z,0.6027777777777777
2023-06-21T09:02:03.999Z,1.35
2023-06-21T09:03:01.237Z,1.5083333333333333
2023-06-21T09:04:01.241Z,1.0333333333333334
2023-06-21T09:05:01.084Z,2.5416666666666665
2023-06-21T09:06:06.504Z,2.0055555555555555
2023-06-21T09:07:02.141Z,1.55
2023-06-21T09:08:04.608Z,1.1694444444444445
2023-06-21T09:09:01.157Z,1.7472222222222222
2023-06-21T09:10:00.884Z,1.35
2023-06-21T09:11:09.365Z,1.0222222222222221
2023-06-21T09:12:01.097Z,1.2305555555555554
2023-06-21T09:13:01.363Z,1.3916666666666666
2023-06-21T09:14:01.128Z,1.55
2023-06-21T09:15:01.124Z,0.9138888888888889
2023-06-21T09:16:11.448Z,0.7138888888888888
2023-06-21T09:17:01.662Z,0.7944444444444444
2023-06-21T09:18:01.834Z,1.9055555555555557
2023-06-21T09:19:02.336Z,1.7472222222222222
2023-06-21T09:20:01.448Z,0.4361111111111111
2023-06-21T09:21:14.237Z,0.8611111111111112
2023-06-21T09:22:01.731Z,1.0333333333333334
2023-06-21T09:23:02.000Z,0.6361111111111111
2023-06-21T09:24:01.489Z,2.186111111111111
2023-06-21T09:25:01.488Z,0.5444444444444444
2023-06-21T09:26:16.751Z,0.6361111111111111
2023-06-21T09:27:01.092Z,0.7555555555555555
2023-06-21T09:28:01.095Z,1.5888888888888888
2023-06-21T09:29:01.108Z,1.1916666666666667
2023-06-21T09:30:16.922Z,2.066666666666667
2023-06-21T09:31:01.132Z,0.675
2023-06-21T09:32:01.122Z,0.5166666666666667
2023-06-21T09:33:01.245Z,0.3972222222222222
2023-06-21T09:34:01.454Z,1.0416666666666667
2023-06-21T09:35:01.299Z,0.875
2023-06-21T09:36:02.059Z,1.55
2023-06-21T09:37:01.046Z,2.225
2023-06-21T09:38:01.101Z,1.2305555555555554
2023-06-21T09:39:01.043Z,1.4305555555555556
2023-06-21T09:40:01.064Z,0.5972222222222222
2023-06-21T09:41:01.098Z,0.47777777777777775
2023-06-21T09:42:01.082Z,1.8083333333333331
2023-06-21T09:43:01.146Z,0.6361111111111111
2023-06-21T09:44:01.112Z,0.9527777777777778
2023-06-21T09:45:01.715Z,1.3916666666666666
2023-06-21T09:46:01.523Z,1.2305555555555554
2023-06-21T09:47:01.125Z,0.7166666666666667
2023-06-21T09:48:01.288Z,0.875
2023-06-21T09:49:01.252Z,0.675
2023-06-21T09:50:01.036Z,0.675
2023-06-21T09:51:01.046Z,1.2722222222222221
2023-06-21T09:52:01.407Z,1.3805555555555555
2023-06-21T09:53:01.270Z,1.0722222222222222
2023-06-21T09:54:01.238Z,1.35
2023-06-21T09:55:01.259Z,0.875
2023-06-21T09:56:01.401Z,1.163888888888889
2023-06-21T09:57:01.036Z,0.5555555555555556
2023-06-21T09:58:01.470Z,1.0333333333333334
2023-06-21T09:59:01.113Z,0.8333333333333333
2023-06-21T10:00:01.167Z,0.6361111111111111
2023-06-21T10:01:02.140Z,1.0722222222222222
2023-06-21T10:02:02.150Z,1.8611111111111112
2023-06-21T10:03:01.605Z,0.4361111111111111
2023-06-21T10:04:01.272Z,1.1916666666666667
2023-06-21T10:05:01.248Z,1.3916666666666666
2023-06-21T10:06:01.999Z,0.47777777777777775
2023-06-21T10:07:01.912Z,0.6972222222222222
2023-06-21T10:08:00.671Z,1.0333333333333334
2023-06-21T10:09:00.454Z,0.35833333333333334
2023-06-21T10:10:00.145Z,0.35833333333333334
2023-06-21T10:10:59.835Z,0.6361111111111111
2023-06-21T10:12:01.469Z,0.23888888888888887
2023-06-21T10:13:01.288Z,1.152777777777778
2023-06-21T10:14:02.117Z,1.5583333333333333
2023-06-21T10:15:01.227Z,0.5972222222222222
2023-06-21T10:16:01.085Z,1.0722222222222222
2023-06-21T10:17:01.114Z,1.2722222222222221
2023-06-21T10:18:06.001Z,1.0333333333333334
2023-06-21T10:19:01.092Z,1.3916666666666666
2023-06-21T10:20:01.181Z,0.9138888888888889
2023-06-21T10:21:01.036Z,1.0722222222222222
2023-06-21T10:22:01.137Z,1.8277777777777777
2023-06-21T10:23:01.433Z,0.7305555555555555
2023-06-21T10:24:01.061Z,0.7944444444444444
2023-06-21T10:25:02.573Z,1.788888888888889
2023-06-21T10:26:01.478Z,0.5166666666666667
2023-06-21T10:27:01.093Z,1.2527777777777778
2023-06-21T10:28:01.234Z,1.8666666666666665
2023-06-21T10:29:01.227Z,0.5555555555555556
2023-06-21T10:30:01.205Z,1.35
2023-06-21T10:31:01.135Z,1.0333333333333334
2023-06-21T10:32:01.543Z,1.55
2023-06-21T10:33:02.202Z,0.961111111111111
2023-06-21T10:34:01.435Z,2.066666666666667
2023-06-21T10:35:01.856Z,1.1916666666666667
2023-06-21T10:36:01.051Z,1.6277777777777778
2023-06-21T10:37:01.079Z,1.0583333333333333
2023-06-21T10:38:01.061Z,1.5083333333333333
2023-06-21T10:39:01.350Z,1.3111111111111111
2023-06-21T10:40:10.597Z,1.0333333333333334
2023-06-21T10:41:01.105Z,1.55
2023-06-21T10:42:01.216Z,0.9972222222222221
2023-06-21T10:43:01.099Z,1.6694444444444443
2023-06-21T10:44:01.098Z,0.7138888888888888
2023-06-21T10:45:01.043Z,1.9055555555555557
2023-06-21T10:46:00.807Z,0.6361111111111111